sensor_id;sensor_type;location;lat;lon;timestamp;P1;durP1;ratioP1;P2;durP2;ratioP2
29954;SDS011;16812;51.168;6.840;2022-12-16T00:01:47;77.07;;;30.97;;
29954;SDS011;16812;51.168;6.840;2022-12-16T00:04:14;78.10;;;32.93;;
29954;SDS011;16812;51.168;6.840;2022-12-16T00:06:42;80.23;;;31.90;;
29954;SDS011;16812;51.168;6.840;2022-12-16T00:09:09;78.47;;;33.57;;
29954;SDS011;16812;51.168;6.840;2022-12-16T00:11:36;78.50;;;31.33;;
29954;SDS011;16812;51.168;6.840;2022-12-16T00:14:03;77.87;;;32.13;;
29954;SDS011;16812;51.168;6.840;2022-12-16T00:16:31;81.23;;;33.13;;
29954;SDS011;16812;51.168;6.840;2022-12-16T00:18:58;80.43;;;32.13;;
29954;SDS011;16812;51.168;6.840;2022-12-16T00:21:25;79.23;;;34.00;;
29954;SDS011;16812;51.168;6.840;2022-12-16T00:23:53;62.00;;;26.97;;
29954;SDS011;16812;51.168;6.840;2022-12-16T00:26:21;71.13;;;27.97;;
29954;SDS011;16812;51.168;6.840;2022-12-16T00:28:48;57.03;;;27.17;;
29954;SDS011;16812;51.168;6.840;2022-12-16T00:31:17;67.37;;;29.33;;
29954;SDS011;16812;51.168;6.840;2022-12-16T00:33:44;75.20;;;33.23;;
29954;SDS011;16812;51.168;6.840;2022-12-16T00:36:11;72.33;;;29.77;;
29954;SDS011;16812;51.168;6.840;2022-12-16T00:38:38;83.50;;;31.03;;
29954;SDS011;16812;51.168;6.840;2022-12-16T00:41:06;71.57;;;29.33;;
29954;SDS011;16812;51.168;6.840;2022-12-16T00:43:33;71.70;;;30.33;;
29954;SDS011;16812;51.168;6.840;2022-12-16T00:46:01;73.50;;;32.33;;
29954;SDS011;16812;51.168;6.840;2022-12-16T00:48:28;65.77;;;27.30;;
29954;SDS011;16812;51.168;6.840;2022-12-16T00:50:56;83.53;;;31.00;;
29954;SDS011;16812;51.168;6.840;2022-12-16T00:53:23;80.57;;;32.43;;
29954;SDS011;16812;51.168;6.840;2022-12-16T00:55:51;86.30;;;33.57;;
29954;SDS011;16812;51.168;6.840;2022-12-16T00:58:20;81.90;;;32.50;;
29954;SDS011;16812;51.168;6.840;2022-12-16T01:00:47;67.60;;;31.30;;
29954;SDS011;16812;51.168;6.840;2022-12-16T01:03:17;68.47;;;28.60;;
29954;SDS011;16812;51.168;6.840;2022-12-16T01:05:47;85.70;;;34.73;;
29954;SDS011;16812;51.168;6.840;2022-12-16T01:08:14;85.73;;;33.97;;
29954;SDS011;16812;51.168;6.840;2022-12-16T01:10:41;74.73;;;31.77;;
29954;SDS011;16812;51.168;6.840;2022-12-16T01:13:09;71.63;;;30.50;;
29954;SDS011;16812;51.168;6.840;2022-12-16T01:15:37;82.30;;;33.80;;
29954;SDS011;16812;51.168;6.840;2022-12-16T01:18:04;84.23;;;32.50;;
29954;SDS011;16812;51.168;6.840;2022-12-16T01:20:31;77.20;;;32.43;;
29954;SDS011;16812;51.168;6.840;2022-12-16T01:22:58;80.10;;;32.40;;
29954;SDS011;16812;51.168;6.840;2022-12-16T01:25:26;75.03;;;31.13;;
29954;SDS011;16812;51.168;6.840;2022-12-16T01:27:53;82.60;;;33.23;;
29954;SDS011;16812;51.168;6.840;2022-12-16T01:30:20;74.87;;;30.63;;
29954;SDS011;16812;51.168;6.840;2022-12-16T01:32:49;62.27;;;29.40;;
29954;SDS011;16812;51.168;6.840;2022-12-16T01:35:17;85.10;;;31.70;;
29954;SDS011;16812;51.168;6.840;2022-12-16T01:38:04;70.27;;;32.70;;
29954;SDS011;16812;51.168;6.840;2022-12-16T01:40:31;79.90;;;33.00;;
29954;SDS011;16812;51.168;6.840;2022-12-16T01:42:58;71.30;;;33.80;;
29954;SDS011;16812;51.168;6.840;2022-12-16T01:45:27;69.80;;;32.57;;
29954;SDS011;16812;51.168;6.840;2022-12-16T01:47:57;67.83;;;30.20;;
29954;SDS011;16812;51.168;6.840;2022-12-16T01:50:25;62.73;;;28.20;;
29954;SDS011;16812;51.168;6.840;2022-12-16T01:52:53;87.03;;;29.93;;
29954;SDS011;16812;51.168;6.840;2022-12-16T01:55:22;72.80;;;33.00;;
29954;SDS011;16812;51.168;6.840;2022-12-16T01:57:52;81.47;;;35.20;;
29954;SDS011;16812;51.168;6.840;2022-12-16T02:00:21;85.50;;;34.27;;
29954;SDS011;16812;51.168;6.840;2022-12-16T02:02:48;74.57;;;32.00;;
29954;SDS011;16812;51.168;6.840;2022-12-16T02:05:18;70.23;;;29.80;;
29954;SDS011;16812;51.168;6.840;2022-12-16T02:07:50;77.43;;;32.20;;
29954;SDS011;16812;51.168;6.840;2022-12-16T02:10:18;74.47;;;32.20;;
29954;SDS011;16812;51.168;6.840;2022-12-16T02:12:48;82.20;;;34.97;;
29954;SDS011;16812;51.168;6.840;2022-12-16T02:15:22;87.03;;;33.50;;
29954;SDS011;16812;51.168;6.840;2022-12-16T02:17:52;81.63;;;30.67;;
29954;SDS011;16812;51.168;6.840;2022-12-16T02:23:15;71.50;;;29.37;;
29954;SDS011;16812;51.168;6.840;2022-12-16T02:26:05;73.67;;;31.57;;
29954;SDS011;16812;51.168;6.840;2022-12-16T02:28:41;64.57;;;30.13;;
29954;SDS011;16812;51.168;6.840;2022-12-16T02:31:17;71.63;;;27.83;;
29954;SDS011;16812;51.168;6.840;2022-12-16T02:33:48;76.40;;;32.67;;
29954;SDS011;16812;51.168;6.840;2022-12-16T02:36:21;73.00;;;29.67;;
29954;SDS011;16812;51.168;6.840;2022-12-16T02:38:53;71.10;;;29.10;;
29954;SDS011;16812;51.168;6.840;2022-12-16T02:41:22;70.40;;;32.53;;
29954;SDS011;16812;51.168;6.840;2022-12-16T02:43:52;61.57;;;28.63;;
29954;SDS011;16812;51.168;6.840;2022-12-16T02:46:22;82.53;;;31.30;;
29954;SDS011;16812;51.168;6.840;2022-12-16T02:48:51;73.47;;;30.60;;
29954;SDS011;16812;51.168;6.840;2022-12-16T02:51:18;67.13;;;28.83;;
29954;SDS011;16812;51.168;6.840;2022-12-16T02:53:46;65.23;;;28.90;;
29954;SDS011;16812;51.168;6.840;2022-12-16T02:56:17;75.10;;;29.30;;
29954;SDS011;16812;51.168;6.840;2022-12-16T02:58:50;76.70;;;28.77;;
29954;SDS011;16812;51.168;6.840;2022-12-16T03:01:19;75.53;;;31.20;;
29954;SDS011;16812;51.168;6.840;2022-12-16T03:03:53;71.67;;;29.23;;
29954;SDS011;16812;51.168;6.840;2022-12-16T03:06:23;76.50;;;31.67;;
29954;SDS011;16812;51.168;6.840;2022-12-16T03:08:52;72.80;;;32.10;;
29954;SDS011;16812;51.168;6.840;2022-12-16T03:11:21;87.07;;;31.23;;
29954;SDS011;16812;51.168;6.840;2022-12-16T03:13:50;79.83;;;33.50;;
29954;SDS011;16812;51.168;6.840;2022-12-16T03:16:19;68.37;;;28.77;;
29954;SDS011;16812;51.168;6.840;2022-12-16T03:18:48;63.80;;;27.70;;
29954;SDS011;16812;51.168;6.840;2022-12-16T03:21:21;69.33;;;28.63;;
29954;SDS011;16812;51.168;6.840;2022-12-16T03:23:50;71.03;;;31.27;;
29954;SDS011;16812;51.168;6.840;2022-12-16T03:26:21;68.83;;;32.20;;
29954;SDS011;16812;51.168;6.840;2022-12-16T03:28:51;52.20;;;22.57;;
29954;SDS011;16812;51.168;6.840;2022-12-16T03:31:24;77.37;;;29.33;;
29954;SDS011;16812;51.168;6.840;2022-12-16T03:33:55;61.70;;;28.60;;
29954;SDS011;16812;51.168;6.840;2022-12-16T03:36:24;69.77;;;30.00;;
29954;SDS011;16812;51.168;6.840;2022-12-16T03:38:52;68.90;;;27.30;;
29954;SDS011;16812;51.168;6.840;2022-12-16T03:41:20;69.87;;;29.63;;
29954;SDS011;16812;51.168;6.840;2022-12-16T03:43:48;79.57;;;31.20;;
29954;SDS011;16812;51.168;6.840;2022-12-16T03:46:16;66.90;;;32.40;;
29954;SDS011;16812;51.168;6.840;2022-12-16T03:48:44;75.43;;;29.90;;
29954;SDS011;16812;51.168;6.840;2022-12-16T03:51:12;64.30;;;26.80;;
29954;SDS011;16812;51.168;6.840;2022-12-16T03:53:40;49.40;;;25.97;;
29954;SDS011;16812;51.168;6.840;2022-12-16T03:56:07;71.37;;;30.20;;
29954;SDS011;16812;51.168;6.840;2022-12-16T03:58:34;70.20;;;29.10;;
29954;SDS011;16812;51.168;6.840;2022-12-16T04:01:01;68.07;;;27.83;;
29954;SDS011;16812;51.168;6.840;2022-12-16T04:03:28;79.87;;;31.63;;
29954;SDS011;16812;51.168;6.840;2022-12-16T04:05:56;59.40;;;26.00;;
29954;SDS011;16812;51.168;6.840;2022-12-16T04:08:23;55.60;;;23.10;;
29954;SDS011;16812;51.168;6.840;2022-12-16T04:10:52;58.37;;;26.90;;
29954;SDS011;16812;51.168;6.840;2022-12-16T04:13:20;62.80;;;25.60;;
29954;SDS011;16812;51.168;6.840;2022-12-16T04:15:47;58.87;;;24.87;;
29954;SDS011;16812;51.168;6.840;2022-12-16T04:18:15;47.90;;;23.40;;
29954;SDS011;16812;51.168;6.840;2022-12-16T04:20:43;80.97;;;30.17;;
29954;SDS011;16812;51.168;6.840;2022-12-16T04:23:11;53.03;;;24.37;;
29954;SDS011;16812;51.168;6.840;2022-12-16T04:25:38;69.23;;;27.70;;
29954;SDS011;16812;51.168;6.840;2022-12-16T04:28:07;69.17;;;28.50;;
29954;SDS011;16812;51.168;6.840;2022-12-16T04:30:34;63.43;;;28.30;;
29954;SDS011;16812;51.168;6.840;2022-12-16T04:33:02;62.80;;;29.73;;
29954;SDS011;16812;51.168;6.840;2022-12-16T04:35:30;66.00;;;27.60;;
29954;SDS011;16812;51.168;6.840;2022-12-16T04:37:57;66.40;;;29.03;;
29954;SDS011;16812;51.168;6.840;2022-12-16T04:40:25;73.50;;;30.27;;
29954;SDS011;16812;51.168;6.840;2022-12-16T04:42:52;68.90;;;30.50;;
29954;SDS011;16812;51.168;6.840;2022-12-16T04:45:20;62.90;;;29.97;;
29954;SDS011;16812;51.168;6.840;2022-12-16T04:47:47;63.53;;;31.10;;
29954;SDS011;16812;51.168;6.840;2022-12-16T04:50:22;73.17;;;27.53;;
29954;SDS011;16812;51.168;6.840;2022-12-16T04:52:49;74.27;;;27.40;;
29954;SDS011;16812;51.168;6.840;2022-12-16T04:55:16;75.70;;;29.60;;
29954;SDS011;16812;51.168;6.840;2022-12-16T04:57:43;71.47;;;30.07;;
29954;SDS011;16812;51.168;6.840;2022-12-16T05:00:13;73.13;;;26.77;;
29954;SDS011;16812;51.168;6.840;2022-12-16T05:02:41;62.27;;;26.53;;
29954;SDS011;16812;51.168;6.840;2022-12-16T05:05:08;65.23;;;27.47;;
29954;SDS011;16812;51.168;6.840;2022-12-16T05:07:35;66.60;;;28.20;;
29954;SDS011;16812;51.168;6.840;2022-12-16T05:10:04;63.27;;;26.53;;
29954;SDS011;16812;51.168;6.840;2022-12-16T05:12:31;65.00;;;25.77;;
29954;SDS011;16812;51.168;6.840;2022-12-16T05:14:58;62.17;;;28.03;;
29954;SDS011;16812;51.168;6.840;2022-12-16T05:17:26;52.97;;;26.03;;
29954;SDS011;16812;51.168;6.840;2022-12-16T05:19:54;63.70;;;24.90;;
29954;SDS011;16812;51.168;6.840;2022-12-16T05:22:21;69.30;;;32.13;;
29954;SDS011;16812;51.168;6.840;2022-12-16T05:24:48;58.63;;;24.60;;
29954;SDS011;16812;51.168;6.840;2022-12-16T05:27:18;82.00;;;28.00;;
29954;SDS011;16812;51.168;6.840;2022-12-16T05:29:45;61.30;;;27.77;;
29954;SDS011;16812;51.168;6.840;2022-12-16T05:32:12;69.80;;;29.03;;
29954;SDS011;16812;51.168;6.840;2022-12-16T05:34:40;67.13;;;28.70;;
29954;SDS011;16812;51.168;6.840;2022-12-16T05:37:08;60.50;;;27.87;;
29954;SDS011;16812;51.168;6.840;2022-12-16T05:39:35;56.20;;;28.50;;
29954;SDS011;16812;51.168;6.840;2022-12-16T05:42:02;59.70;;;27.97;;
29954;SDS011;16812;51.168;6.840;2022-12-16T05:44:30;64.10;;;26.43;;
29954;SDS011;16812;51.168;6.840;2022-12-16T05:46:57;57.00;;;26.10;;
29954;SDS011;16812;51.168;6.840;2022-12-16T05:49:24;51.83;;;25.93;;
29954;SDS011;16812;51.168;6.840;2022-12-16T05:51:51;62.93;;;26.17;;
29954;SDS011;16812;51.168;6.840;2022-12-16T05:54:19;69.73;;;25.90;;
29954;SDS011;16812;51.168;6.840;2022-12-16T05:56:47;68.50;;;27.60;;
29954;SDS011;16812;51.168;6.840;2022-12-16T05:59:14;56.60;;;25.10;;
29954;SDS011;16812;51.168;6.840;2022-12-16T06:01:41;58.10;;;26.27;;
29954;SDS011;16812;51.168;6.840;2022-12-16T06:04:08;55.50;;;24.17;;
29954;SDS011;16812;51.168;6.840;2022-12-16T06:06:42;58.13;;;26.50;;
29954;SDS011;16812;51.168;6.840;2022-12-16T06:09:09;71.93;;;25.80;;
29954;SDS011;16812;51.168;6.840;2022-12-16T06:11:38;56.37;;;25.40;;
29954;SDS011;16812;51.168;6.840;2022-12-16T06:14:05;59.23;;;24.37;;
29954;SDS011;16812;51.168;6.840;2022-12-16T06:16:32;53.07;;;25.07;;
29954;SDS011;16812;51.168;6.840;2022-12-16T06:19:00;56.90;;;25.47;;
29954;SDS011;16812;51.168;6.840;2022-12-16T06:21:27;54.00;;;25.87;;
29954;SDS011;16812;51.168;6.840;2022-12-16T06:23:54;75.53;;;29.10;;
29954;SDS011;16812;51.168;6.840;2022-12-16T06:26:21;60.80;;;28.67;;
29954;SDS011;16812;51.168;6.840;2022-12-16T06:28:49;59.10;;;27.83;;
29954;SDS011;16812;51.168;6.840;2022-12-16T06:31:17;71.70;;;28.37;;
29954;SDS011;16812;51.168;6.840;2022-12-16T06:33:44;68.87;;;27.67;;
29954;SDS011;16812;51.168;6.840;2022-12-16T06:36:17;78.50;;;30.40;;
29954;SDS011;16812;51.168;6.840;2022-12-16T06:38:44;68.00;;;29.53;;
29954;SDS011;16812;51.168;6.840;2022-12-16T06:41:11;59.10;;;28.50;;
29954;SDS011;16812;51.168;6.840;2022-12-16T06:43:38;55.43;;;26.27;;
29954;SDS011;16812;51.168;6.840;2022-12-16T06:46:06;73.97;;;30.33;;
29954;SDS011;16812;51.168;6.840;2022-12-16T06:48:34;59.10;;;27.97;;
29954;SDS011;16812;51.168;6.840;2022-12-16T06:51:01;71.57;;;28.27;;
29954;SDS011;16812;51.168;6.840;2022-12-16T06:53:28;66.20;;;29.40;;
29954;SDS011;16812;51.168;6.840;2022-12-16T06:55:56;62.90;;;27.03;;
29954;SDS011;16812;51.168;6.840;2022-12-16T06:58:23;61.53;;;26.87;;
29954;SDS011;16812;51.168;6.840;2022-12-16T07:00:50;71.50;;;29.00;;
29954;SDS011;16812;51.168;6.840;2022-12-16T07:03:19;79.40;;;32.40;;
29954;SDS011;16812;51.168;6.840;2022-12-16T07:05:46;64.43;;;24.03;;
29954;SDS011;16812;51.168;6.840;2022-12-16T07:08:13;58.90;;;27.17;;
29954;SDS011;16812;51.168;6.840;2022-12-16T07:10:40;53.50;;;24.63;;
29954;SDS011;16812;51.168;6.840;2022-12-16T07:13:07;57.90;;;26.87;;
29954;SDS011;16812;51.168;6.840;2022-12-16T07:15:34;60.73;;;25.30;;
29954;SDS011;16812;51.168;6.840;2022-12-16T07:18:01;68.37;;;28.90;;
29954;SDS011;16812;51.168;6.840;2022-12-16T07:20:30;63.03;;;24.70;;
29954;SDS011;16812;51.168;6.840;2022-12-16T07:22:57;57.60;;;26.27;;
29954;SDS011;16812;51.168;6.840;2022-12-16T07:25:37;71.60;;;29.10;;
29954;SDS011;16812;51.168;6.840;2022-12-16T07:28:04;69.87;;;26.70;;
29954;SDS011;16812;51.168;6.840;2022-12-16T07:30:39;57.07;;;25.83;;
29954;SDS011;16812;51.168;6.840;2022-12-16T07:33:07;56.10;;;24.43;;
29954;SDS011;16812;51.168;6.840;2022-12-16T07:35:36;67.47;;;30.20;;
29954;SDS011;16812;51.168;6.840;2022-12-16T07:38:03;58.40;;;26.27;;
29954;SDS011;16812;51.168;6.840;2022-12-16T07:40:30;70.13;;;28.80;;
29954;SDS011;16812;51.168;6.840;2022-12-16T07:42:57;69.67;;;29.77;;
29954;SDS011;16812;51.168;6.840;2022-12-16T07:45:24;55.57;;;25.13;;
29954;SDS011;16812;51.168;6.840;2022-12-16T07:47:52;57.07;;;25.27;;
29954;SDS011;16812;51.168;6.840;2022-12-16T07:50:20;67.20;;;29.33;;
29954;SDS011;16812;51.168;6.840;2022-12-16T07:52:53;66.93;;;25.30;;
29954;SDS011;16812;51.168;6.840;2022-12-16T07:55:20;64.03;;;27.63;;
29954;SDS011;16812;51.168;6.840;2022-12-16T07:57:48;70.40;;;27.67;;
29954;SDS011;16812;51.168;6.840;2022-12-16T08:00:15;53.70;;;25.80;;
29954;SDS011;16812;51.168;6.840;2022-12-16T08:02:44;53.90;;;21.47;;
29954;SDS011;16812;51.168;6.840;2022-12-16T08:05:12;66.50;;;27.80;;
29954;SDS011;16812;51.168;6.840;2022-12-16T08:07:39;63.50;;;26.37;;
29954;SDS011;16812;51.168;6.840;2022-12-16T08:10:08;57.80;;;25.97;;
29954;SDS011;16812;51.168;6.840;2022-12-16T08:12:35;52.40;;;21.83;;
29954;SDS011;16812;51.168;6.840;2022-12-16T08:15:03;74.77;;;28.10;;
29954;SDS011;16812;51.168;6.840;2022-12-16T08:17:30;63.60;;;27.90;;
29954;SDS011;16812;51.168;6.840;2022-12-16T08:19:57;64.23;;;25.60;;
29954;SDS011;16812;51.168;6.840;2022-12-16T08:22:24;56.90;;;26.30;;
29954;SDS011;16812;51.168;6.840;2022-12-16T08:24:51;60.80;;;22.70;;
29954;SDS011;16812;51.168;6.840;2022-12-16T08:27:22;60.43;;;26.63;;
29954;SDS011;16812;51.168;6.840;2022-12-16T08:29:49;51.67;;;24.10;;
29954;SDS011;16812;51.168;6.840;2022-12-16T08:32:17;51.83;;;24.37;;
29954;SDS011;16812;51.168;6.840;2022-12-16T08:34:44;57.30;;;25.80;;
29954;SDS011;16812;51.168;6.840;2022-12-16T08:37:11;59.30;;;26.37;;
29954;SDS011;16812;51.168;6.840;2022-12-16T08:39:38;70.67;;;29.43;;
29954;SDS011;16812;51.168;6.840;2022-12-16T08:42:05;74.83;;;30.67;;
29954;SDS011;16812;51.168;6.840;2022-12-16T08:44:34;65.67;;;27.77;;
29954;SDS011;16812;51.168;6.840;2022-12-16T08:47:01;58.77;;;26.27;;
29954;SDS011;16812;51.168;6.840;2022-12-16T08:49:28;71.17;;;26.73;;
29954;SDS011;16812;51.168;6.840;2022-12-16T08:51:55;64.37;;;25.93;;
29954;SDS011;16812;51.168;6.840;2022-12-16T08:54:23;77.37;;;29.87;;
29954;SDS011;16812;51.168;6.840;2022-12-16T08:56:50;66.60;;;32.67;;
29954;SDS011;16812;51.168;6.840;2022-12-16T08:59:17;86.23;;;33.63;;
29954;SDS011;16812;51.168;6.840;2022-12-16T09:01:46;74.27;;;32.60;;
29954;SDS011;16812;51.168;6.840;2022-12-16T09:04:13;77.50;;;33.20;;
29954;SDS011;16812;51.168;6.840;2022-12-16T09:06:40;73.23;;;32.47;;
29954;SDS011;16812;51.168;6.840;2022-12-16T09:09:07;75.23;;;34.97;;
29954;SDS011;16812;51.168;6.840;2022-12-16T09:11:34;85.00;;;33.83;;
29954;SDS011;16812;51.168;6.840;2022-12-16T09:14:01;67.90;;;32.60;;
29954;SDS011;16812;51.168;6.840;2022-12-16T09:16:29;81.73;;;34.90;;
29954;SDS011;16812;51.168;6.840;2022-12-16T09:18:57;58.03;;;30.37;;
29954;SDS011;16812;51.168;6.840;2022-12-16T09:21:25;64.20;;;30.03;;
29954;SDS011;16812;51.168;6.840;2022-12-16T09:23:58;68.30;;;31.70;;
29954;SDS011;16812;51.168;6.840;2022-12-16T09:26:25;65.57;;;31.30;;
29954;SDS011;16812;51.168;6.840;2022-12-16T09:28:52;92.80;;;30.50;;
29954;SDS011;16812;51.168;6.840;2022-12-16T09:31:20;78.50;;;31.40;;
29954;SDS011;16812;51.168;6.840;2022-12-16T09:33:47;73.93;;;32.67;;
29954;SDS011;16812;51.168;6.840;2022-12-16T09:36:15;58.50;;;30.63;;
29954;SDS011;16812;51.168;6.840;2022-12-16T09:38:42;60.60;;;31.67;;
29954;SDS011;16812;51.168;6.840;2022-12-16T09:41:17;54.00;;;29.67;;
29954;SDS011;16812;51.168;6.840;2022-12-16T09:43:50;59.63;;;28.57;;
29954;SDS011;16812;51.168;6.840;2022-12-16T09:46:23;54.97;;;29.10;;
29954;SDS011;16812;51.168;6.840;2022-12-16T09:48:55;67.37;;;31.70;;
29954;SDS011;16812;51.168;6.840;2022-12-16T09:51:27;48.83;;;28.23;;
29954;SDS011;16812;51.168;6.840;2022-12-16T09:53:54;63.97;;;30.33;;
29954;SDS011;16812;51.168;6.840;2022-12-16T09:56:24;57.90;;;29.27;;
29954;SDS011;16812;51.168;6.840;2022-12-16T09:58:53;58.60;;;28.30;;
29954;SDS011;16812;51.168;6.840;2022-12-16T10:01:23;56.03;;;29.53;;
29954;SDS011;16812;51.168;6.840;2022-12-16T10:03:50;56.30;;;29.80;;
29954;SDS011;16812;51.168;6.840;2022-12-16T10:06:20;57.27;;;29.57;;
29954;SDS011;16812;51.168;6.840;2022-12-16T10:08:55;68.00;;;32.63;;
29954;SDS011;16812;51.168;6.840;2022-12-16T10:11:26;53.57;;;30.03;;
29954;SDS011;16812;51.168;6.840;2022-12-16T10:13:59;67.20;;;33.37;;
29954;SDS011;16812;51.168;6.840;2022-12-16T10:16:31;58.50;;;31.83;;
29954;SDS011;16812;51.168;6.840;2022-12-16T10:19:04;60.90;;;33.10;;
29954;SDS011;16812;51.168;6.840;2022-12-16T10:21:38;69.63;;;32.00;;
29954;SDS011;16812;51.168;6.840;2022-12-16T10:24:13;56.17;;;28.20;;
29954;SDS011;16812;51.168;6.840;2022-12-16T10:26:46;52.43;;;29.50;;
29954;SDS011;16812;51.168;6.840;2022-12-16T10:29:17;59.97;;;31.53;;
29954;SDS011;16812;51.168;6.840;2022-12-16T10:31:47;56.00;;;31.97;;
29954;SDS011;16812;51.168;6.840;2022-12-16T10:34:17;54.13;;;30.63;;
29954;SDS011;16812;51.168;6.840;2022-12-16T10:36:45;60.20;;;31.90;;
29954;SDS011;16812;51.168;6.840;2022-12-16T10:39:18;51.37;;;30.07;;
29954;SDS011;16812;51.168;6.840;2022-12-16T10:41:48;55.57;;;30.20;;
29954;SDS011;16812;51.168;6.840;2022-12-16T10:44:19;65.10;;;32.23;;
29954;SDS011;16812;51.168;6.840;2022-12-16T10:46:48;62.57;;;32.13;;
29954;SDS011;16812;51.168;6.840;2022-12-16T10:49:16;61.30;;;33.47;;
29954;SDS011;16812;51.168;6.840;2022-12-16T10:51:44;59.47;;;32.80;;
29954;SDS011;16812;51.168;6.840;2022-12-16T10:54:18;59.90;;;32.20;;
29954;SDS011;16812;51.168;6.840;2022-12-16T10:56:50;68.97;;;32.97;;
29954;SDS011;16812;51.168;6.840;2022-12-16T10:59:21;62.83;;;31.63;;
29954;SDS011;16812;51.168;6.840;2022-12-16T11:01:54;59.90;;;32.47;;
29954;SDS011;16812;51.168;6.840;2022-12-16T11:04:28;68.10;;;33.93;;
29954;SDS011;16812;51.168;6.840;2022-12-16T11:06:56;72.17;;;35.30;;
29954;SDS011;16812;51.168;6.840;2022-12-16T11:09:26;72.90;;;34.77;;
29954;SDS011;16812;51.168;6.840;2022-12-16T11:11:53;69.63;;;34.63;;
29954;SDS011;16812;51.168;6.840;2022-12-16T11:14:39;76.10;;;36.20;;
29954;SDS011;16812;51.168;6.840;2022-12-16T11:17:37;97.13;;;38.37;;
29954;SDS011;16812;51.168;6.840;2022-12-16T11:20:06;76.50;;;34.87;;
29954;SDS011;16812;51.168;6.840;2022-12-16T11:22:34;74.87;;;33.00;;
29954;SDS011;16812;51.168;6.840;2022-12-16T11:25:04;80.43;;;37.30;;
29954;SDS011;16812;51.168;6.840;2022-12-16T11:27:31;83.83;;;35.10;;
29954;SDS011;16812;51.168;6.840;2022-12-16T11:29:59;68.77;;;36.53;;
29954;SDS011;16812;51.168;6.840;2022-12-16T11:32:26;71.33;;;33.17;;
29954;SDS011;16812;51.168;6.840;2022-12-16T11:34:54;87.30;;;37.63;;
29954;SDS011;16812;51.168;6.840;2022-12-16T11:37:23;95.00;;;36.03;;
29954;SDS011;16812;51.168;6.840;2022-12-16T11:39:51;87.73;;;40.50;;
29954;SDS011;16812;51.168;6.840;2022-12-16T11:42:20;79.77;;;37.23;;
29954;SDS011;16812;51.168;6.840;2022-12-16T11:44:48;95.33;;;34.83;;
29954;SDS011;16812;51.168;6.840;2022-12-16T11:47:19;82.80;;;35.50;;
29954;SDS011;16812;51.168;6.840;2022-12-16T11:49:47;92.53;;;37.53;;
29954;SDS011;16812;51.168;6.840;2022-12-16T11:52:17;94.10;;;37.80;;
29954;SDS011;16812;51.168;6.840;2022-12-16T11:55:06;124.90;;;42.40;;
29954;SDS011;16812;51.168;6.840;2022-12-16T11:57:40;101.57;;;39.30;;
29954;SDS011;16812;51.168;6.840;2022-12-16T12:00:11;97.03;;;37.20;;
29954;SDS011;16812;51.168;6.840;2022-12-16T12:02:40;115.77;;;37.60;;
29954;SDS011;16812;51.168;6.840;2022-12-16T12:05:10;106.70;;;39.53;;
29954;SDS011;16812;51.168;6.840;2022-12-16T12:07:38;103.23;;;37.43;;
29954;SDS011;16812;51.168;6.840;2022-12-16T12:10:18;91.63;;;37.47;;
29954;SDS011;16812;51.168;6.840;2022-12-16T12:12:51;97.03;;;37.40;;
29954;SDS011;16812;51.168;6.840;2022-12-16T12:15:22;93.00;;;36.83;;
29954;SDS011;16812;51.168;6.840;2022-12-16T12:17:50;86.53;;;36.50;;
29954;SDS011;16812;51.168;6.840;2022-12-16T12:20:28;87.10;;;35.37;;
29954;SDS011;16812;51.168;6.840;2022-12-16T12:22:57;80.23;;;30.50;;
29954;SDS011;16812;51.168;6.840;2022-12-16T12:25:27;80.13;;;34.93;;
29954;SDS011;16812;51.168;6.840;2022-12-16T12:28:00;111.73;;;35.57;;
29954;SDS011;16812;51.168;6.840;2022-12-16T12:30:29;96.40;;;34.13;;
29954;SDS011;16812;51.168;6.840;2022-12-16T12:33:05;91.37;;;33.73;;
29954;SDS011;16812;51.168;6.840;2022-12-16T12:35:41;98.77;;;36.03;;
29954;SDS011;16812;51.168;6.840;2022-12-16T12:38:12;93.63;;;32.17;;
29954;SDS011;16812;51.168;6.840;2022-12-16T12:40:44;112.07;;;34.77;;
29954;SDS011;16812;51.168;6.840;2022-12-16T12:43:17;114.23;;;35.47;;
29954;SDS011;16812;51.168;6.840;2022-12-16T12:45:50;109.67;;;33.77;;
29954;SDS011;16812;51.168;6.840;2022-12-16T12:48:20;117.70;;;30.10;;
29954;SDS011;16812;51.168;6.840;2022-12-16T12:50:49;123.13;;;29.63;;
29954;SDS011;16812;51.168;6.840;2022-12-16T12:53:23;90.17;;;29.00;;
29954;SDS011;16812;51.168;6.840;2022-12-16T12:55:53;164.10;;;33.67;;
29954;SDS011;16812;51.168;6.840;2022-12-16T12:58:24;135.03;;;30.33;;
29954;SDS011;16812;51.168;6.840;2022-12-16T13:00:53;112.23;;;27.77;;
29954;SDS011;16812;51.168;6.840;2022-12-16T13:03:23;98.47;;;28.73;;
29954;SDS011;16812;51.168;6.840;2022-12-16T13:05:53;63.23;;;26.50;;
29954;SDS011;16812;51.168;6.840;2022-12-16T13:11:10;69.73;;;26.93;;
29954;SDS011;16812;51.168;6.840;2022-12-16T13:13:39;83.10;;;27.07;;
29954;SDS011;16812;51.168;6.840;2022-12-16T13:16:08;79.67;;;29.70;;
29954;SDS011;16812;51.168;6.840;2022-12-16T13:18:36;66.80;;;27.30;;
29954;SDS011;16812;51.168;6.840;2022-12-16T13:21:03;118.43;;;32.13;;
29954;SDS011;16812;51.168;6.840;2022-12-16T13:23:31;90.47;;;27.07;;
29954;SDS011;16812;51.168;6.840;2022-12-16T13:26:02;80.57;;;27.47;;
29954;SDS011;16812;51.168;6.840;2022-12-16T13:28:31;99.57;;;31.17;;
29954;SDS011;16812;51.168;6.840;2022-12-16T13:31:01;176.67;;;38.10;;
29954;SDS011;16812;51.168;6.840;2022-12-16T13:33:29;95.23;;;28.80;;
29954;SDS011;16812;51.168;6.840;2022-12-16T13:35:57;77.70;;;28.70;;
29954;SDS011;16812;51.168;6.840;2022-12-16T13:38:25;96.73;;;30.70;;
29954;SDS011;16812;51.168;6.840;2022-12-16T13:40:52;114.30;;;33.97;;
29954;SDS011;16812;51.168;6.840;2022-12-16T13:46:14;99.90;;;34.33;;
29954;SDS011;16812;51.168;6.840;2022-12-16T13:48:41;98.70;;;32.00;;
29954;SDS011;16812;51.168;6.840;2022-12-16T13:51:08;81.70;;;31.77;;
29954;SDS011;16812;51.168;6.840;2022-12-16T13:53:57;79.17;;;33.43;;
29954;SDS011;16812;51.168;6.840;2022-12-16T13:56:26;162.53;;;37.00;;
29954;SDS011;16812;51.168;6.840;2022-12-16T13:58:57;96.43;;;34.97;;
29954;SDS011;16812;51.168;6.840;2022-12-16T14:01:27;95.40;;;34.07;;
29954;SDS011;16812;51.168;6.840;2022-12-16T14:03:55;96.83;;;35.37;;
29954;SDS011;16812;51.168;6.840;2022-12-16T14:06:24;111.20;;;35.13;;
29954;SDS011;16812;51.168;6.840;2022-12-16T14:08:51;96.10;;;32.63;;
29954;SDS011;16812;51.168;6.840;2022-12-16T14:11:21;89.63;;;32.20;;
29954;SDS011;16812;51.168;6.840;2022-12-16T14:13:51;89.37;;;31.57;;
29954;SDS011;16812;51.168;6.840;2022-12-16T14:16:20;90.40;;;33.70;;
29954;SDS011;16812;51.168;6.840;2022-12-16T14:18:57;105.63;;;34.47;;
29954;SDS011;16812;51.168;6.840;2022-12-16T14:21:30;125.37;;;36.07;;
29954;SDS011;16812;51.168;6.840;2022-12-16T14:23:59;104.20;;;32.23;;
29954;SDS011;16812;51.168;6.840;2022-12-16T14:26:30;82.93;;;31.80;;
29954;SDS011;16812;51.168;6.840;2022-12-16T14:29:00;324.90;;;53.20;;
29954;SDS011;16812;51.168;6.840;2022-12-16T14:31:29;193.33;;;41.43;;
29954;SDS011;16812;51.168;6.840;2022-12-16T14:34:01;228.83;;;45.57;;
29954;SDS011;16812;51.168;6.840;2022-12-16T14:36:36;352.27;;;60.67;;
29954;SDS011;16812;51.168;6.840;2022-12-16T14:39:07;117.93;;;35.93;;
29954;SDS011;16812;51.168;6.840;2022-12-16T14:41:36;126.57;;;33.73;;